sensor_id;sensor_type;location;lat;lon;timestamp;P1;durP1;ratioP1;P2;durP2;ratioP2
27758;SDS011;15148;48.972;12.794;2023-05-23T00:04:05;11.70;;;9.52;;
27758;SDS011;15148;48.972;12.794;2023-05-23T00:09:07;10.35;;;9.25;;
27758;SDS011;15148;48.972;12.794;2023-05-23T00:14:09;10.00;;;9.02;;
27758;SDS011;15148;48.972;12.794;2023-05-23T00:19:15;10.77;;;9.23;;
27758;SDS011;15148;48.972;12.794;2023-05-23T00:24:17;10.65;;;9.65;;
27758;SDS011;15148;48.972;12.794;2023-05-23T00:29:20;12.15;;;9.05;;
27758;SDS011;15148;48.972;12.794;2023-05-23T00:34:23;9.98;;;9.07;;
27758;SDS011;15148;48.972;12.794;2023-05-23T00:39:25;11.15;;;9.45;;
27758;SDS011;15148;48.972;12.794;2023-05-23T00:44:28;11.20;;;10.10;;
27758;SDS011;15148;48.972;12.794;2023-05-23T00:49:30;10.38;;;9.27;;
27758;SDS011;15148;48.972;12.794;2023-05-23T00:54:32;10.45;;;9.50;;
27758;SDS011;15148;48.972;12.794;2023-05-23T00:59:34;12.38;;;10.48;;
27758;SDS011;15148;48.972;12.794;2023-05-23T01:04:38;9.90;;;8.93;;
27758;SDS011;15148;48.972;12.794;2023-05-23T01:09:40;13.80;;;10.02;;
27758;SDS011;15148;48.972;12.794;2023-05-23T01:20:11;10.65;;;8.68;;
27758;SDS011;15148;48.972;12.794;2023-05-23T01:25:24;10.65;;;9.65;;
27758;SDS011;15148;48.972;12.794;2023-05-23T01:30:30;10.20;;;9.30;;
27758;SDS011;15148;48.972;12.794;2023-05-23T01:35:34;10.98;;;9.70;;
27758;SDS011;15148;48.972;12.794;2023-05-23T01:40:37;11.40;;;9.43;;
27758;SDS011;15148;48.972;12.794;2023-05-23T01:45:39;11.68;;;9.52;;
27758;SDS011;15148;48.972;12.794;2023-05-23T01:50:42;12.43;;;10.07;;
27758;SDS011;15148;48.972;12.794;2023-05-23T01:55:48;13.57;;;10.38;;
27758;SDS011;15148;48.972;12.794;2023-05-23T02:00:51;10.57;;;9.48;;
27758;SDS011;15148;48.972;12.794;2023-05-23T02:05:53;12.63;;;10.20;;
27758;SDS011;15148;48.972;12.794;2023-05-23T02:10:55;10.63;;;9.55;;
27758;SDS011;15148;48.972;12.794;2023-05-23T02:15:57;10.85;;;9.73;;
27758;SDS011;15148;48.972;12.794;2023-05-23T02:20:58;10.60;;;9.60;;
27758;SDS011;15148;48.972;12.794;2023-05-23T02:26:00;13.35;;;10.38;;
27758;SDS011;15148;48.972;12.794;2023-05-23T02:31:02;12.35;;;10.20;;
27758;SDS011;15148;48.972;12.794;2023-05-23T02:36:05;11.27;;;10.25;;
27758;SDS011;15148;48.972;12.794;2023-05-23T02:41:07;10.95;;;9.77;;
27758;SDS011;15148;48.972;12.794;2023-05-23T02:46:09;12.13;;;9.93;;
27758;SDS011;15148;48.972;12.794;2023-05-23T02:51:14;13.73;;;10.38;;
27758;SDS011;15148;48.972;12.794;2023-05-23T02:56:15;11.77;;;10.75;;
27758;SDS011;15148;48.972;12.794;2023-05-23T03:01:18;11.70;;;10.50;;
27758;SDS011;15148;48.972;12.794;2023-05-23T03:06:20;13.10;;;10.50;;
27758;SDS011;15148;48.972;12.794;2023-05-23T03:11:22;12.88;;;9.55;;
27758;SDS011;15148;48.972;12.794;2023-05-23T03:16:24;11.25;;;10.15;;
27758;SDS011;15148;48.972;12.794;2023-05-23T03:21:27;11.38;;;9.20;;
27758;SDS011;15148;48.972;12.794;2023-05-23T03:26:28;11.80;;;10.70;;
27758;SDS011;15148;48.972;12.794;2023-05-23T03:31:31;11.38;;;10.32;;
27758;SDS011;15148;48.972;12.794;2023-05-23T03:36:33;11.70;;;10.55;;
27758;SDS011;15148;48.972;12.794;2023-05-23T03:41:36;11.35;;;10.20;;
27758;SDS011;15148;48.972;12.794;2023-05-23T03:46:38;10.50;;;9.45;;
27758;SDS011;15148;48.972;12.794;2023-05-23T03:51:41;10.35;;;9.35;;
27758;SDS011;15148;48.972;12.794;2023-05-23T03:56:47;10.68;;;9.68;;
27758;SDS011;15148;48.972;12.794;2023-05-23T04:01:49;11.05;;;9.95;;
27758;SDS011;15148;48.972;12.794;2023-05-23T04:06:52;11.27;;;10.18;;
27758;SDS011;15148;48.972;12.794;2023-05-23T04:11:54;12.02;;;10.82;;
27758;SDS011;15148;48.972;12.794;2023-05-23T04:16:56;11.93;;;10.15;;
27758;SDS011;15148;48.972;12.794;2023-05-23T04:21:59;11.85;;;10.32;;
27758;SDS011;15148;48.972;12.794;2023-05-23T04:27:01;11.88;;;10.77;;
27758;SDS011;15148;48.972;12.794;2023-05-23T04:32:04;12.40;;;11.13;;
27758;SDS011;15148;48.972;12.794;2023-05-23T04:37:07;11.45;;;10.35;;
27758;SDS011;15148;48.972;12.794;2023-05-23T04:42:09;11.85;;;10.70;;
27758;SDS011;15148;48.972;12.794;2023-05-23T04:47:30;13.50;;;10.75;;
27758;SDS011;15148;48.972;12.794;2023-05-23T04:52:41;14.55;;;11.35;;
27758;SDS011;15148;48.972;12.794;2023-05-23T04:57:43;12.40;;;10.80;;
27758;SDS011;15148;48.972;12.794;2023-05-23T05:02:45;11.20;;;10.15;;
27758;SDS011;15148;48.972;12.794;2023-05-23T05:07:49;11.65;;;10.45;;
27758;SDS011;15148;48.972;12.794;2023-05-23T05:12:51;12.50;;;10.65;;
27758;SDS011;15148;48.972;12.794;2023-05-23T05:17:56;13.88;;;12.57;;
27758;SDS011;15148;48.972;12.794;2023-05-23T05:22:58;13.50;;;12.13;;
27758;SDS011;15148;48.972;12.794;2023-05-23T05:28:01;13.90;;;12.50;;
27758;SDS011;15148;48.972;12.794;2023-05-23T05:33:14;14.57;;;13.07;;
27758;SDS011;15148;48.972;12.794;2023-05-23T05:38:16;14.52;;;13.13;;
27758;SDS011;15148;48.972;12.794;2023-05-23T05:43:19;14.77;;;12.82;;
27758;SDS011;15148;48.972;12.794;2023-05-23T05:48:22;13.15;;;11.85;;
27758;SDS011;15148;48.972;12.794;2023-05-23T05:53:27;14.57;;;13.10;;
27758;SDS011;15148;48.972;12.794;2023-05-23T05:58:29;13.77;;;11.85;;
27758;SDS011;15148;48.972;12.794;2023-05-23T06:03:41;14.02;;;12.68;;
27758;SDS011;15148;48.972;12.794;2023-05-23T06:08:43;14.93;;;12.73;;
27758;SDS011;15148;48.972;12.794;2023-05-23T06:13:49;14.10;;;12.80;;
27758;SDS011;15148;48.972;12.794;2023-05-23T06:18:52;14.35;;;12.93;;
27758;SDS011;15148;48.972;12.794;2023-05-23T06:23:55;16.02;;;14.35;;
27758;SDS011;15148;48.972;12.794;2023-05-23T06:28:58;18.58;;;16.77;;
27758;SDS011;15148;48.972;12.794;2023-05-23T06:34:01;14.43;;;13.02;;
27758;SDS011;15148;48.972;12.794;2023-05-23T06:39:03;16.13;;;14.52;;
27758;SDS011;15148;48.972;12.794;2023-05-23T06:44:04;16.95;;;15.15;;
27758;SDS011;15148;48.972;12.794;2023-05-23T06:49:06;16.80;;;15.18;;
27758;SDS011;15148;48.972;12.794;2023-05-23T06:54:14;16.65;;;15.05;;
27758;SDS011;15148;48.972;12.794;2023-05-23T06:59:18;15.68;;;13.68;;
27758;SDS011;15148;48.972;12.794;2023-05-23T07:04:20;15.48;;;14.10;;
27758;SDS011;15148;48.972;12.794;2023-05-23T07:09:23;14.10;;;12.60;;
27758;SDS011;15148;48.972;12.794;2023-05-23T07:14:30;15.48;;;13.88;;
27758;SDS011;15148;48.972;12.794;2023-05-23T07:19:32;15.88;;;14.25;;
27758;SDS011;15148;48.972;12.794;2023-05-23T07:24:35;21.88;;;15.43;;
27758;SDS011;15148;48.972;12.794;2023-05-23T07:29:38;16.98;;;15.32;;
27758;SDS011;15148;48.972;12.794;2023-05-23T07:34:43;15.45;;;13.90;;
27758;SDS011;15148;48.972;12.794;2023-05-23T07:39:45;15.30;;;13.68;;
27758;SDS011;15148;48.972;12.794;2023-05-23T07:44:47;16.98;;;15.13;;
27758;SDS011;15148;48.972;12.794;2023-05-23T07:49:49;16.88;;;15.15;;
27758;SDS011;15148;48.972;12.794;2023-05-23T07:54:53;17.20;;;13.85;;
27758;SDS011;15148;48.972;12.794;2023-05-23T07:59:55;14.52;;;13.13;;
27758;SDS011;15148;48.972;12.794;2023-05-23T08:04:58;15.90;;;14.43;;
27758;SDS011;15148;48.972;12.794;2023-05-23T08:10:00;16.67;;;14.85;;
27758;SDS011;15148;48.972;12.794;2023-05-23T08:15:02;13.80;;;12.50;;
27758;SDS011;15148;48.972;12.794;2023-05-23T08:20:11;14.30;;;12.93;;
27758;SDS011;15148;48.972;12.794;2023-05-23T08:25:14;16.10;;;14.52;;
27758;SDS011;15148;48.972;12.794;2023-05-23T08:30:16;14.63;;;13.07;;
27758;SDS011;15148;48.972;12.794;2023-05-23T08:35:18;14.98;;;13.45;;
27758;SDS011;15148;48.972;12.794;2023-05-23T08:40:21;18.08;;;14.93;;
27758;SDS011;15148;48.972;12.794;2023-05-23T08:45:41;15.00;;;13.60;;
27758;SDS011;15148;48.972;12.794;2023-05-23T08:50:44;16.70;;;14.93;;
27758;SDS011;15148;48.972;12.794;2023-05-23T08:55:49;17.85;;;15.48;;
27758;SDS011;15148;48.972;12.794;2023-05-23T09:00:53;14.05;;;12.70;;
27758;SDS011;15148;48.972;12.794;2023-05-23T09:05:57;15.20;;;13.68;;
27758;SDS011;15148;48.972;12.794;2023-05-23T09:11:01;16.20;;;14.50;;
27758;SDS011;15148;48.972;12.794;2023-05-23T09:16:10;14.50;;;13.20;;
27758;SDS011;15148;48.972;12.794;2023-05-23T09:21:33;15.32;;;13.82;;
27758;SDS011;15148;48.972;12.794;2023-05-23T09:26:48;13.07;;;11.88;;
27758;SDS011;15148;48.972;12.794;2023-05-23T09:31:50;14.38;;;13.05;;
27758;SDS011;15148;48.972;12.794;2023-05-23T09:36:53;13.32;;;12.00;;
27758;SDS011;15148;48.972;12.794;2023-05-23T09:41:57;13.82;;;12.52;;
27758;SDS011;15148;48.972;12.794;2023-05-23T09:47:02;13.93;;;12.70;;
27758;SDS011;15148;48.972;12.794;2023-05-23T09:52:07;15.30;;;13.43;;
27758;SDS011;15148;48.972;12.794;2023-05-23T09:57:09;12.25;;;11.15;;
27758;SDS011;15148;48.972;12.794;2023-05-23T10:02:11;13.05;;;10.65;;
27758;SDS011;15148;48.972;12.794;2023-05-23T10:07:19;11.77;;;10.77;;
27758;SDS011;15148;48.972;12.794;2023-05-23T10:22:54;10.40;;;9.50;;
27758;SDS011;15148;48.972;12.794;2023-05-23T10:27:57;15.60;;;12.45;;
27758;SDS011;15148;48.972;12.794;2023-05-23T10:33:03;11.85;;;9.88;;
27758;SDS011;15148;48.972;12.794;2023-05-23T10:43:46;9.45;;;8.35;;
27758;SDS011;15148;48.972;12.794;2023-05-23T10:49:02;9.93;;;8.68;;
27758;SDS011;15148;48.972;12.794;2023-05-23T10:54:11;10.80;;;9.70;;
27758;SDS011;15148;48.972;12.794;2023-05-23T10:59:20;9.40;;;8.60;;
27758;SDS011;15148;48.972;12.794;2023-05-23T11:04:26;10.25;;;9.18;;
27758;SDS011;15148;48.972;12.794;2023-05-23T11:09:29;9.75;;;8.75;;
27758;SDS011;15148;48.972;12.794;2023-05-23T11:19:33;11.18;;;10.07;;
27758;SDS011;15148;48.972;12.794;2023-05-23T11:24:51;10.20;;;9.20;;
27758;SDS011;15148;48.972;12.794;2023-05-23T11:29:55;10.52;;;9.30;;
27758;SDS011;15148;48.972;12.794;2023-05-23T11:35:01;10.40;;;9.07;;
27758;SDS011;15148;48.972;12.794;2023-05-23T11:45:26;11.27;;;9.77;;
27758;SDS011;15148;48.972;12.794;2023-05-23T11:50:29;9.40;;;8.32;;
27758;SDS011;15148;48.972;12.794;2023-05-23T11:55:31;9.32;;;8.25;;
27758;SDS011;15148;48.972;12.794;2023-05-23T12:00:33;12.25;;;9.70;;
27758;SDS011;15148;48.972;12.794;2023-05-23T12:05:34;9.82;;;8.82;;
27758;SDS011;15148;48.972;12.794;2023-05-23T12:10:37;10.90;;;9.90;;
27758;SDS011;15148;48.972;12.794;2023-05-23T12:16:00;11.15;;;10.15;;
27758;SDS011;15148;48.972;12.794;2023-05-23T12:21:03;11.25;;;10.07;;
27758;SDS011;15148;48.972;12.794;2023-05-23T12:26:08;11.43;;;9.45;;
27758;SDS011;15148;48.972;12.794;2023-05-23T12:31:11;10.43;;;9.38;;
27758;SDS011;15148;48.972;12.794;2023-05-23T12:36:13;10.38;;;9.23;;
27758;SDS011;15148;48.972;12.794;2023-05-23T12:41:16;10.65;;;9.52;;
27758;SDS011;15148;48.972;12.794;2023-05-23T12:46:23;11.45;;;9.77;;
27758;SDS011;15148;48.972;12.794;2023-05-23T12:51:27;10.30;;;8.80;;
27758;SDS011;15148;48.972;12.794;2023-05-23T12:56:29;9.30;;;8.32;;
27758;SDS011;15148;48.972;12.794;2023-05-23T13:01:31;8.57;;;7.78;;
27758;SDS011;15148;48.972;12.794;2023-05-23T13:06:34;9.10;;;8.27;;
27758;SDS011;15148;48.972;12.794;2023-05-23T13:11:36;9.32;;;7.80;;
27758;SDS011;15148;48.972;12.794;2023-05-23T13:16:38;11.55;;;7.65;;
27758;SDS011;15148;48.972;12.794;2023-05-23T13:21:40;8.38;;;7.47;;
27758;SDS011;15148;48.972;12.794;2023-05-23T13:26:43;8.45;;;7.43;;
27758;SDS011;15148;48.972;12.794;2023-05-23T13:31:45;8.77;;;7.82;;
27758;SDS011;15148;48.972;12.794;2023-05-23T13:36:47;8.57;;;7.63;;
27758;SDS011;15148;48.972;12.794;2023-05-23T13:41:49;12.02;;;8.20;;
27758;SDS011;15148;48.972;12.794;2023-05-23T13:46:51;9.02;;;7.75;;
27758;SDS011;15148;48.972;12.794;2023-05-23T13:51:53;8.75;;;7.55;;
27758;SDS011;15148;48.972;12.794;2023-05-23T13:56:55;9.00;;;7.50;;
27758;SDS011;15148;48.972;12.794;2023-05-23T14:01:57;8.88;;;8.07;;
27758;SDS011;15148;48.972;12.794;2023-05-23T14:06:58;8.20;;;7.45;;
27758;SDS011;15148;48.972;12.794;2023-05-23T14:12:00;8.50;;;7.70;;
27758;SDS011;15148;48.972;12.794;2023-05-23T14:17:02;9.77;;;7.45;;
27758;SDS011;15148;48.972;12.794;2023-05-23T14:22:04;7.93;;;7.13;;
27758;SDS011;15148;48.972;12.794;2023-05-23T14:27:06;8.57;;;7.75;;
27758;SDS011;15148;48.972;12.794;2023-05-23T14:32:11;7.82;;;7.03;;
27758;SDS011;15148;48.972;12.794;2023-05-23T14:37:13;9.23;;;7.80;;
27758;SDS011;15148;48.972;12.794;2023-05-23T14:42:16;8.25;;;7.45;;
27758;SDS011;15148;48.972;12.794;2023-05-23T14:47:17;8.38;;;7.30;;
27758;SDS011;15148;48.972;12.794;2023-05-23T14:52:20;8.60;;;7.70;;
27758;SDS011;15148;48.972;12.794;2023-05-23T14:57:21;8.13;;;7.28;;
27758;SDS011;15148;48.972;12.794;2023-05-23T15:02:24;8.50;;;7.28;;
27758;SDS011;15148;48.972;12.794;2023-05-23T15:07:26;8.15;;;7.35;;
27758;SDS011;15148;48.972;12.794;2023-05-23T15:12:27;8.05;;;7.25;;
27758;SDS011;15148;48.972;12.794;2023-05-23T15:17:30;7.78;;;7.05;;
27758;SDS011;15148;48.972;12.794;2023-05-23T15:22:33;7.50;;;6.75;;
27758;SDS011;15148;48.972;12.794;2023-05-23T15:27:39;6.97;;;6.00;;
27758;SDS011;15148;48.972;12.794;2023-05-23T15:32:41;6.82;;;6.10;;
27758;SDS011;15148;48.972;12.794;2023-05-23T15:37:43;6.55;;;5.68;;
27758;SDS011;15148;48.972;12.794;2023-05-23T15:42:45;5.57;;;4.32;;
27758;SDS011;15148;48.972;12.794;2023-05-23T15:47:47;6.65;;;4.20;;
27758;SDS011;15148;48.972;12.794;2023-05-23T15:52:49;7.85;;;3.65;;
27758;SDS011;15148;48.972;12.794;2023-05-23T15:57:50;3.50;;;3.20;;
27758;SDS011;15148;48.972;12.794;2023-05-23T16:02:52;4.30;;;3.00;;
27758;SDS011;15148;48.972;12.794;2023-05-23T16:07:54;3.85;;;3.33;;
27758;SDS011;15148;48.972;12.794;2023-05-23T16:12:56;3.08;;;2.78;;
27758;SDS011;15148;48.972;12.794;2023-05-23T16:17:58;2.58;;;2.38;;
27758;SDS011;15148;48.972;12.794;2023-05-23T16:23:00;3.75;;;2.63;;
27758;SDS011;15148;48.972;12.794;2023-05-23T16:28:02;3.15;;;2.60;;
27758;SDS011;15148;48.972;12.794;2023-05-23T16:33:04;4.22;;;2.53;;
27758;SDS011;15148;48.972;12.794;2023-05-23T16:38:06;3.78;;;2.65;;
27758;SDS011;15148;48.972;12.794;2023-05-23T16:43:07;3.45;;;2.70;;
27758;SDS011;15148;48.972;12.794;2023-05-23T16:48:09;3.40;;;3.10;;
27758;SDS011;15148;48.972;12.794;2023-05-23T16:53:11;3.25;;;2.63;;
27758;SDS011;15148;48.972;12.794;2023-05-23T16:58:13;4.43;;;2.85;;
27758;SDS011;15148;48.972;12.794;2023-05-23T17:03:15;3.97;;;2.60;;
27758;SDS011;15148;48.972;12.794;2023-05-23T17:08:17;3.05;;;2.72;;
27758;SDS011;15148;48.972;12.794;2023-05-23T17:13:19;4.22;;;3.40;;
27758;SDS011;15148;48.972;12.794;2023-05-23T17:18:21;3.00;;;2.75;;
27758;SDS011;15148;48.972;12.794;2023-05-23T17:23:23;3.17;;;2.88;;
27758;SDS011;15148;48.972;12.794;2023-05-23T17:28:26;4.03;;;3.08;;
27758;SDS011;15148;48.972;12.794;2023-05-23T17:33:27;3.40;;;3.10;;
27758;SDS011;15148;48.972;12.794;2023-05-23T17:38:29;5.13;;;3.40;;
27758;SDS011;15148;48.972;12.794;2023-05-23T17:43:31;3.72;;;3.20;;
27758;SDS011;15148;48.972;12.794;2023-05-23T17:48:33;3.30;;;3.00;;
27758;SDS011;15148;48.972;12.794;2023-05-23T17:53:47;2.80;;;2.60;;
27758;SDS011;15148;48.972;12.794;2023-05-23T17:58:53;4.75;;;3.22;;
27758;SDS011;15148;48.972;12.794;2023-05-23T18:03:55;3.50;;;3.20;;
27758;SDS011;15148;48.972;12.794;2023-05-23T18:08:57;5.20;;;3.47;;
27758;SDS011;15148;48.972;12.794;2023-05-23T18:13:59;4.13;;;3.33;;
27758;SDS011;15148;48.972;12.794;2023-05-23T18:19:01;4.30;;;3.90;;
27758;SDS011;15148;48.972;12.794;2023-05-23T18:24:03;6.10;;;4.25;;
27758;SDS011;15148;48.972;12.794;2023-05-23T18:29:05;5.93;;;4.00;;
27758;SDS011;15148;48.972;12.794;2023-05-23T18:34:07;4.10;;;3.80;;
27758;SDS011;15148;48.972;12.794;2023-05-23T18:39:10;5.68;;;3.80;;
27758;SDS011;15148;48.972;12.794;2023-05-23T18:44:11;4.13;;;3.72;;
27758;SDS011;15148;48.972;12.794;2023-05-23T18:49:13;4.43;;;4.03;;
27758;SDS011;15148;48.972;12.794;2023-05-23T18:54:16;5.78;;;4.00;;
27758;SDS011;15148;48.972;12.794;2023-05-23T18:59:18;4.15;;;3.75;;
27758;SDS011;15148;48.972;12.794;2023-05-23T19:04:21;4.60;;;4.00;;
27758;SDS011;15148;48.972;12.794;2023-05-23T19:09:22;6.38;;;3.72;;
27758;SDS011;15148;48.972;12.794;2023-05-23T19:14:24;4.38;;;3.83;;
27758;SDS011;15148;48.972;12.794;2023-05-23T19:19:26;7.40;;;4.03;;
27758;SDS011;15148;48.972;12.794;2023-05-23T19:24:31;4.32;;;3.92;;
27758;SDS011;15148;48.972;12.794;2023-05-23T19:29:34;4.82;;;3.78;;
27758;SDS011;15148;48.972;12.794;2023-05-23T19:34:36;4.45;;;4.05;;
27758;SDS011;15148;48.972;12.794;2023-05-23T19:39:38;5.80;;;4.35;;
27758;SDS011;15148;48.972;12.794;2023-05-23T19:44:45;4.38;;;3.80;;
27758;SDS011;15148;48.972;12.794;2023-05-23T19:49:47;5.43;;;4.32;;
27758;SDS011;15148;48.972;12.794;2023-05-23T19:54:49;4.57;;;3.97;;
27758;SDS011;15148;48.972;12.794;2023-05-23T19:59:51;5.30;;;4.10;;
27758;SDS011;15148;48.972;12.794;2023-05-23T20:04:53;6.28;;;4.32;;
27758;SDS011;15148;48.972;12.794;2023-05-23T20:09:55;4.80;;;4.32;;
27758;SDS011;15148;48.972;12.794;2023-05-23T20:14:57;4.43;;;4.03;;
27758;SDS011;15148;48.972;12.794;2023-05-23T20:19:59;10.40;;;4.35;;
27758;SDS011;15148;48.972;12.794;2023-05-23T20:25:00;4.93;;;4.43;;
27758;SDS011;15148;48.972;12.794;2023-05-23T20:30:03;4.82;;;4.32;;
27758;SDS011;15148;48.972;12.794;2023-05-23T20:35:05;4.95;;;4.30;;
27758;SDS011;15148;48.972;12.794;2023-05-23T20:40:08;5.13;;;4.07;;
27758;SDS011;15148;48.972;12.794;2023-05-23T20:45:10;5.57;;;4.55;;
27758;SDS011;15148;48.972;12.794;2023-05-23T20:50:12;5.25;;;4.75;;
27758;SDS011;15148;48.972;12.794;2023-05-23T20:55:15;4.63;;;4.18;;
27758;SDS011;15148;48.972;12.794;2023-05-23T21:00:17;6.50;;;4.85;;
27758;SDS011;15148;48.972;12.794;2023-05-23T21:05:21;5.18;;;4.68;;
27758;SDS011;15148;48.972;12.794;2023-05-23T21:10:23;4.75;;;4.35;;
27758;SDS011;15148;48.972;12.794;2023-05-23T21:15:25;5.18;;;4.68;;
27758;SDS011;15148;48.972;12.794;2023-05-23T21:20:27;6.57;;;4.78;;
27758;SDS011;15148;48.972;12.794;2023-05-23T21:25:29;6.68;;;5.00;;
27758;SDS011;15148;48.972;12.794;2023-05-23T21:30:31;5.00;;;4.57;;
27758;SDS011;15148;48.972;12.794;2023-05-23T21:35:33;6.05;;;4.85;;
27758;SDS011;15148;48.972;12.794;2023-05-23T21:40:38;5.78;;;5.28;;
27758;SDS011;15148;48.972;12.794;2023-05-23T21:45:40;4.97;;;4.50;;
27758;SDS011;15148;48.972;12.794;2023-05-23T21:50:42;5.10;;;4.60;;
27758;SDS011;15148;48.972;12.794;2023-05-23T21:55:44;5.80;;;5.15;;
27758;SDS011;15148;48.972;12.794;2023-05-23T22:00:46;5.25;;;4.43;;
27758;SDS011;15148;48.972;12.794;2023-05-23T22:05:48;4.93;;;4.43;;
27758;SDS011;15148;48.972;12.794;2023-05-23T22:10:49;4.50;;;4.10;;
27758;SDS011;15148;48.972;12.794;2023-05-23T22:15:51;4.88;;;4.38;;
27758;SDS011;15148;48.972;12.794;2023-05-23T22:20:54;4.80;;;4.35;;
27758;SDS011;15148;48.972;12.794;2023-05-23T22:25:55;4.60;;;4.18;;
27758;SDS011;15148;48.972;12.794;2023-05-23T22:30:57;4.97;;;4.55;;
27758;SDS011;15148;48.972;12.794;2023-05-23T22:35:59;4.95;;;3.65;;
27758;SDS011;15148;48.972;12.794;2023-05-23T22:41:01;4.63;;;4.22;;
27758;SDS011;15148;48.972;12.794;2023-05-23T22:46:04;4.15;;;3.85;;
27758;SDS011;15148;48.972;12.794;2023-05-23T22:51:06;4.45;;;4.05;;
27758;SDS011;15148;48.972;12.794;2023-05-23T22:56:09;5.32;;;4.03;;
27758;SDS011;15148;48.972;12.794;2023-05-23T23:01:12;3.90;;;3.60;;
27758;SDS011;15148;48.972;12.794;2023-05-23T23:06:13;4.30;;;3.97;;
27758;SDS011;15148;48.972;12.794;2023-05-23T23:11:15;3.60;;;3.30;;
27758;SDS011;15148;48.972;12.794;2023-05-23T23:16:17;3.90;;;3.50;;
27758;SDS011;15148;48.972;12.794;2023-05-23T23:21:19;3.53;;;3.22;;
27758;SDS011;15148;48.972;12.794;2023-05-23T23:26:21;3.30;;;3.00;;
27758;SDS011;15148;48.972;12.794;2023-05-23T23:31:23;5.43;;;2.80;;
27758;SDS011;15148;48.972;12.794;2023-05-23T23:36:25;2.80;;;2.60;;
27758;SDS011;15148;48.972;12.794;2023-05-23T23:41:27;3.08;;;2.78;;
27758;SDS011;15148;48.972;12.794;2023-05-23T23:46:28;3.03;;;2.72;;
27758;SDS011;15148;48.972;12.794;2023-05-23T23:51:31;2.50;;;2.30;;
27758;SDS011;15148;48.972;12.794;2023-05-23T23:56:33;2.28;;;2.08;;
